sensor_id;sensor_type;location;lat;lon;timestamp;P1;durP1;ratioP1;P2;durP2;ratioP2
77234;SDS011;66253;50.526;14.974;2024-01-07T00:02:30;15.00;;;6.30;;
77234;SDS011;66253;50.526;14.974;2024-01-07T00:04:59;18.60;;;7.10;;
77234;SDS011;66253;50.526;14.974;2024-01-07T00:09:56;13.80;;;5.80;;
77234;SDS011;66253;50.526;14.974;2024-01-07T00:12:24;16.00;;;6.30;;
77234;SDS011;66253;50.526;14.974;2024-01-07T00:14:52;16.10;;;6.30;;
77234;SDS011;66253;50.526;14.974;2024-01-07T00:17:20;20.90;;;8.40;;
77234;SDS011;66253;50.526;14.974;2024-01-07T00:19:51;19.10;;;8.60;;
77234;SDS011;66253;50.526;14.974;2024-01-07T00:22:19;16.00;;;6.80;;
77234;SDS011;66253;50.526;14.974;2024-01-07T00:24:47;29.80;;;15.90;;
77234;SDS011;66253;50.526;14.974;2024-01-07T00:27:16;18.90;;;9.80;;
77234;SDS011;66253;50.526;14.974;2024-01-07T00:29:44;22.30;;;9.60;;
77234;SDS011;66253;50.526;14.974;2024-01-07T00:32:12;24.00;;;9.50;;
77234;SDS011;66253;50.526;14.974;2024-01-07T00:34:41;19.80;;;7.60;;
77234;SDS011;66253;50.526;14.974;2024-01-07T00:37:09;19.10;;;7.30;;
77234;SDS011;66253;50.526;14.974;2024-01-07T00:39:37;23.90;;;10.50;;
77234;SDS011;66253;50.526;14.974;2024-01-07T00:42:06;38.80;;;14.00;;
77234;SDS011;66253;50.526;14.974;2024-01-07T00:44:34;56.80;;;18.80;;
77234;SDS011;66253;50.526;14.974;2024-01-07T00:47:03;65.00;;;23.80;;
77234;SDS011;66253;50.526;14.974;2024-01-07T00:49:31;47.50;;;21.00;;
77234;SDS011;66253;50.526;14.974;2024-01-07T00:52:00;36.60;;;15.40;;
77234;SDS011;66253;50.526;14.974;2024-01-07T00:54:28;34.90;;;14.20;;
77234;SDS011;66253;50.526;14.974;2024-01-07T00:56:57;42.30;;;14.80;;
77234;SDS011;66253;50.526;14.974;2024-01-07T00:59:25;46.20;;;18.10;;
77234;SDS011;66253;50.526;14.974;2024-01-07T01:01:54;40.30;;;18.40;;
77234;SDS011;66253;50.526;14.974;2024-01-07T01:04:22;38.90;;;15.50;;
77234;SDS011;66253;50.526;14.974;2024-01-07T01:06:50;36.50;;;13.70;;
77234;SDS011;66253;50.526;14.974;2024-01-07T01:09:19;32.80;;;12.20;;
77234;SDS011;66253;50.526;14.974;2024-01-07T01:11:47;28.60;;;11.80;;
77234;SDS011;66253;50.526;14.974;2024-01-07T01:14:15;32.20;;;12.70;;
77234;SDS011;66253;50.526;14.974;2024-01-07T01:16:44;23.50;;;10.80;;
77234;SDS011;66253;50.526;14.974;2024-01-07T01:19:12;24.20;;;9.00;;
77234;SDS011;66253;50.526;14.974;2024-01-07T01:21:40;20.30;;;8.40;;
77234;SDS011;66253;50.526;14.974;2024-01-07T01:24:09;28.60;;;10.80;;
77234;SDS011;66253;50.526;14.974;2024-01-07T01:26:37;21.00;;;8.70;;
77234;SDS011;66253;50.526;14.974;2024-01-07T01:29:05;22.20;;;8.80;;
77234;SDS011;66253;50.526;14.974;2024-01-07T01:31:33;24.90;;;9.70;;
77234;SDS011;66253;50.526;14.974;2024-01-07T01:34:02;25.50;;;9.50;;
77234;SDS011;66253;50.526;14.974;2024-01-07T01:36:31;26.10;;;9.30;;
77234;SDS011;66253;50.526;14.974;2024-01-07T01:39:00;26.70;;;9.50;;
77234;SDS011;66253;50.526;14.974;2024-01-07T01:41:28;27.20;;;10.80;;
77234;SDS011;66253;50.526;14.974;2024-01-07T01:43:57;26.20;;;9.30;;
77234;SDS011;66253;50.526;14.974;2024-01-07T01:46:27;33.00;;;11.00;;
77234;SDS011;66253;50.526;14.974;2024-01-07T01:48:56;32.70;;;10.80;;
77234;SDS011;66253;50.526;14.974;2024-01-07T01:51:25;31.40;;;10.90;;
77234;SDS011;66253;50.526;14.974;2024-01-07T01:53:53;32.80;;;10.70;;
77234;SDS011;66253;50.526;14.974;2024-01-07T01:56:22;29.30;;;10.00;;
77234;SDS011;66253;50.526;14.974;2024-01-07T01:58:51;28.50;;;9.20;;
77234;SDS011;66253;50.526;14.974;2024-01-07T02:01:20;28.30;;;9.70;;
77234;SDS011;66253;50.526;14.974;2024-01-07T02:03:55;21.20;;;7.50;;
77234;SDS011;66253;50.526;14.974;2024-01-07T02:06:28;24.40;;;9.20;;
77234;SDS011;66253;50.526;14.974;2024-01-07T02:09:01;26.00;;;10.20;;
77234;SDS011;66253;50.526;14.974;2024-01-07T02:11:44;24.10;;;9.60;;
77234;SDS011;66253;50.526;14.974;2024-01-07T02:14:44;22.10;;;8.30;;
77234;SDS011;66253;50.526;14.974;2024-01-07T02:17:18;23.50;;;9.20;;
77234;SDS011;66253;50.526;14.974;2024-01-07T02:19:47;18.50;;;7.70;;
77234;SDS011;66253;50.526;14.974;2024-01-07T02:22:16;22.40;;;8.30;;
77234;SDS011;66253;50.526;14.974;2024-01-07T02:24:50;25.20;;;9.70;;
77234;SDS011;66253;50.526;14.974;2024-01-07T02:27:19;21.70;;;8.60;;
77234;SDS011;66253;50.526;14.974;2024-01-07T02:29:47;18.20;;;7.20;;
77234;SDS011;66253;50.526;14.974;2024-01-07T02:32:17;20.00;;;9.00;;
77234;SDS011;66253;50.526;14.974;2024-01-07T02:34:50;22.40;;;8.30;;
77234;SDS011;66253;50.526;14.974;2024-01-07T02:37:19;26.00;;;11.40;;
77234;SDS011;66253;50.526;14.974;2024-01-07T02:39:49;21.40;;;8.80;;
77234;SDS011;66253;50.526;14.974;2024-01-07T02:42:17;22.20;;;8.60;;
77234;SDS011;66253;50.526;14.974;2024-01-07T02:44:46;23.00;;;9.00;;
77234;SDS011;66253;50.526;14.974;2024-01-07T02:47:23;22.90;;;8.90;;
77234;SDS011;66253;50.526;14.974;2024-01-07T02:49:53;18.80;;;8.10;;
77234;SDS011;66253;50.526;14.974;2024-01-07T02:52:22;20.50;;;8.40;;
77234;SDS011;66253;50.526;14.974;2024-01-07T02:54:54;28.80;;;9.90;;
77234;SDS011;66253;50.526;14.974;2024-01-07T02:57:30;24.90;;;9.70;;
77234;SDS011;66253;50.526;14.974;2024-01-07T02:59:59;26.50;;;9.70;;
77234;SDS011;66253;50.526;14.974;2024-01-07T03:02:35;27.70;;;9.60;;
77234;SDS011;66253;50.526;14.974;2024-01-07T03:05:07;23.30;;;9.80;;
77234;SDS011;66253;50.526;14.974;2024-01-07T03:07:38;28.00;;;9.40;;
77234;SDS011;66253;50.526;14.974;2024-01-07T03:10:08;21.90;;;9.20;;
77234;SDS011;66253;50.526;14.974;2024-01-07T03:12:37;20.70;;;8.10;;
77234;SDS011;66253;50.526;14.974;2024-01-07T03:15:10;22.10;;;7.80;;
77234;SDS011;66253;50.526;14.974;2024-01-07T03:17:40;16.50;;;7.60;;
77234;SDS011;66253;50.526;14.974;2024-01-07T03:20:09;19.30;;;8.20;;
77234;SDS011;66253;50.526;14.974;2024-01-07T03:22:45;20.90;;;8.50;;
77234;SDS011;66253;50.526;14.974;2024-01-07T03:25:14;18.40;;;8.10;;
77234;SDS011;66253;50.526;14.974;2024-01-07T03:27:43;20.90;;;7.80;;
77234;SDS011;66253;50.526;14.974;2024-01-07T03:30:15;20.10;;;8.10;;
77234;SDS011;66253;50.526;14.974;2024-01-07T03:32:43;12.10;;;5.50;;
77234;SDS011;66253;50.526;14.974;2024-01-07T03:35:15;14.40;;;6.40;;
77234;SDS011;66253;50.526;14.974;2024-01-07T03:37:44;13.10;;;5.40;;
77234;SDS011;66253;50.526;14.974;2024-01-07T03:40:13;11.20;;;5.30;;
77234;SDS011;66253;50.526;14.974;2024-01-07T03:42:42;10.20;;;4.90;;
77234;SDS011;66253;50.526;14.974;2024-01-07T03:45:11;8.80;;;4.10;;
77234;SDS011;66253;50.526;14.974;2024-01-07T03:47:41;11.10;;;4.40;;
77234;SDS011;66253;50.526;14.974;2024-01-07T03:50:11;13.00;;;6.20;;
77234;SDS011;66253;50.526;14.974;2024-01-07T03:52:40;11.30;;;4.80;;
77234;SDS011;66253;50.526;14.974;2024-01-07T03:55:10;10.00;;;4.00;;
77234;SDS011;66253;50.526;14.974;2024-01-07T03:57:39;10.20;;;4.40;;
77234;SDS011;66253;50.526;14.974;2024-01-07T04:00:10;10.00;;;5.00;;
77234;SDS011;66253;50.526;14.974;2024-01-07T04:02:41;8.50;;;4.00;;
77234;SDS011;66253;50.526;14.974;2024-01-07T04:05:10;10.80;;;5.00;;
77234;SDS011;66253;50.526;14.974;2024-01-07T04:07:39;12.10;;;5.00;;
77234;SDS011;66253;50.526;14.974;2024-01-07T04:10:08;12.10;;;5.20;;
77234;SDS011;66253;50.526;14.974;2024-01-07T04:12:47;10.00;;;4.10;;
77234;SDS011;66253;50.526;14.974;2024-01-07T04:15:17;10.00;;;5.00;;
77234;SDS011;66253;50.526;14.974;2024-01-07T04:17:46;10.30;;;5.00;;
77234;SDS011;66253;50.526;14.974;2024-01-07T04:20:15;9.80;;;4.20;;
77234;SDS011;66253;50.526;14.974;2024-01-07T04:22:43;10.70;;;4.70;;
77234;SDS011;66253;50.526;14.974;2024-01-07T04:25:11;10.70;;;5.10;;
77234;SDS011;66253;50.526;14.974;2024-01-07T04:27:40;10.90;;;4.70;;
77234;SDS011;66253;50.526;14.974;2024-01-07T04:30:08;9.90;;;4.80;;
77234;SDS011;66253;50.526;14.974;2024-01-07T04:32:39;10.20;;;4.40;;
77234;SDS011;66253;50.526;14.974;2024-01-07T04:35:08;10.40;;;4.50;;
77234;SDS011;66253;50.526;14.974;2024-01-07T04:37:37;10.90;;;4.70;;
77234;SDS011;66253;50.526;14.974;2024-01-07T04:40:06;10.40;;;4.20;;
77234;SDS011;66253;50.526;14.974;2024-01-07T04:42:35;10.20;;;4.30;;
77234;SDS011;66253;50.526;14.974;2024-01-07T04:45:04;9.40;;;3.90;;
77234;SDS011;66253;50.526;14.974;2024-01-07T04:47:33;8.40;;;3.90;;
77234;SDS011;66253;50.526;14.974;2024-01-07T04:50:02;12.00;;;4.20;;
77234;SDS011;66253;50.526;14.974;2024-01-07T04:52:31;8.50;;;3.90;;
77234;SDS011;66253;50.526;14.974;2024-01-07T04:54:59;10.10;;;4.10;;
77234;SDS011;66253;50.526;14.974;2024-01-07T04:57:29;10.50;;;5.00;;
77234;SDS011;66253;50.526;14.974;2024-01-07T04:59:57;9.80;;;4.00;;
77234;SDS011;66253;50.526;14.974;2024-01-07T05:02:26;11.10;;;5.00;;
77234;SDS011;66253;50.526;14.974;2024-01-07T05:04:54;10.70;;;4.60;;
77234;SDS011;66253;50.526;14.974;2024-01-07T05:07:22;8.70;;;4.30;;
77234;SDS011;66253;50.526;14.974;2024-01-07T05:09:50;11.40;;;5.00;;
77234;SDS011;66253;50.526;14.974;2024-01-07T05:12:18;9.40;;;4.20;;
77234;SDS011;66253;50.526;14.974;2024-01-07T05:14:47;8.80;;;4.00;;
77234;SDS011;66253;50.526;14.974;2024-01-07T05:17:15;10.50;;;4.60;;
77234;SDS011;66253;50.526;14.974;2024-01-07T05:19:43;6.80;;;3.30;;
77234;SDS011;66253;50.526;14.974;2024-01-07T05:22:11;10.90;;;4.40;;
77234;SDS011;66253;50.526;14.974;2024-01-07T05:24:40;9.20;;;3.70;;
77234;SDS011;66253;50.526;14.974;2024-01-07T05:27:08;9.70;;;4.00;;
77234;SDS011;66253;50.526;14.974;2024-01-07T05:29:36;15.20;;;5.10;;
77234;SDS011;66253;50.526;14.974;2024-01-07T05:32:05;9.90;;;4.30;;
77234;SDS011;66253;50.526;14.974;2024-01-07T05:34:34;10.30;;;4.60;;
77234;SDS011;66253;50.526;14.974;2024-01-07T05:37:02;10.30;;;4.90;;
77234;SDS011;66253;50.526;14.974;2024-01-07T05:39:31;10.10;;;4.20;;
77234;SDS011;66253;50.526;14.974;2024-01-07T05:41:59;12.80;;;4.30;;
77234;SDS011;66253;50.526;14.974;2024-01-07T05:44:27;10.50;;;4.30;;
77234;SDS011;66253;50.526;14.974;2024-01-07T05:46:56;8.80;;;4.20;;
77234;SDS011;66253;50.526;14.974;2024-01-07T05:49:24;9.70;;;4.90;;
77234;SDS011;66253;50.526;14.974;2024-01-07T05:51:52;9.90;;;3.70;;
77234;SDS011;66253;50.526;14.974;2024-01-07T05:54:21;10.00;;;4.40;;
77234;SDS011;66253;50.526;14.974;2024-01-07T05:56:49;12.10;;;5.00;;
77234;SDS011;66253;50.526;14.974;2024-01-07T05:59:17;11.40;;;4.80;;
77234;SDS011;66253;50.526;14.974;2024-01-07T06:01:46;8.70;;;3.70;;
77234;SDS011;66253;50.526;14.974;2024-01-07T06:04:14;12.30;;;5.60;;
77234;SDS011;66253;50.526;14.974;2024-01-07T06:06:42;10.60;;;4.90;;
77234;SDS011;66253;50.526;14.974;2024-01-07T06:09:10;9.60;;;3.80;;
77234;SDS011;66253;50.526;14.974;2024-01-07T06:11:38;11.10;;;4.70;;
77234;SDS011;66253;50.526;14.974;2024-01-07T06:14:07;9.90;;;4.00;;
77234;SDS011;66253;50.526;14.974;2024-01-07T06:16:35;11.70;;;5.10;;
77234;SDS011;66253;50.526;14.974;2024-01-07T06:19:03;14.00;;;4.90;;
77234;SDS011;66253;50.526;14.974;2024-01-07T06:21:31;13.20;;;4.70;;
77234;SDS011;66253;50.526;14.974;2024-01-07T06:24:00;12.00;;;4.40;;
77234;SDS011;66253;50.526;14.974;2024-01-07T06:26:28;13.40;;;5.60;;
77234;SDS011;66253;50.526;14.974;2024-01-07T06:28:57;12.60;;;6.40;;
77234;SDS011;66253;50.526;14.974;2024-01-07T06:31:25;9.70;;;4.80;;
77234;SDS011;66253;50.526;14.974;2024-01-07T06:33:54;13.10;;;6.20;;
77234;SDS011;66253;50.526;14.974;2024-01-07T06:36:22;10.80;;;4.90;;
77234;SDS011;66253;50.526;14.974;2024-01-07T06:38:51;10.80;;;4.40;;
77234;SDS011;66253;50.526;14.974;2024-01-07T06:41:19;8.60;;;3.90;;
77234;SDS011;66253;50.526;14.974;2024-01-07T06:43:48;10.50;;;4.60;;
77234;SDS011;66253;50.526;14.974;2024-01-07T06:46:16;7.60;;;3.90;;
77234;SDS011;66253;50.526;14.974;2024-01-07T06:48:44;9.90;;;5.00;;
77234;SDS011;66253;50.526;14.974;2024-01-07T06:51:13;10.70;;;4.30;;
77234;SDS011;66253;50.526;14.974;2024-01-07T06:53:41;9.60;;;4.40;;
77234;SDS011;66253;50.526;14.974;2024-01-07T06:56:10;10.50;;;4.50;;
77234;SDS011;66253;50.526;14.974;2024-01-07T06:58:39;8.50;;;4.00;;
77234;SDS011;66253;50.526;14.974;2024-01-07T07:01:07;9.40;;;4.00;;
77234;SDS011;66253;50.526;14.974;2024-01-07T07:03:36;10.10;;;4.40;;
77234;SDS011;66253;50.526;14.974;2024-01-07T07:06:05;9.70;;;3.50;;
77234;SDS011;66253;50.526;14.974;2024-01-07T07:08:33;10.30;;;4.10;;
77234;SDS011;66253;50.526;14.974;2024-01-07T07:11:01;9.90;;;4.00;;
77234;SDS011;66253;50.526;14.974;2024-01-07T07:13:30;7.90;;;3.50;;
77234;SDS011;66253;50.526;14.974;2024-01-07T07:15:58;9.20;;;3.90;;
77234;SDS011;66253;50.526;14.974;2024-01-07T07:18:27;10.70;;;4.10;;
77234;SDS011;66253;50.526;14.974;2024-01-07T07:20:55;12.40;;;4.90;;
77234;SDS011;66253;50.526;14.974;2024-01-07T07:23:23;10.70;;;4.60;;
77234;SDS011;66253;50.526;14.974;2024-01-07T07:25:51;8.60;;;2.90;;
77234;SDS011;66253;50.526;14.974;2024-01-07T07:28:20;7.30;;;3.30;;
77234;SDS011;66253;50.526;14.974;2024-01-07T07:30:48;8.80;;;3.60;;
77234;SDS011;66253;50.526;14.974;2024-01-07T07:33:18;8.20;;;3.80;;
77234;SDS011;66253;50.526;14.974;2024-01-07T07:35:46;9.20;;;3.80;;
77234;SDS011;66253;50.526;14.974;2024-01-07T07:38:15;7.60;;;2.90;;
77234;SDS011;66253;50.526;14.974;2024-01-07T07:40:43;8.00;;;3.30;;
77234;SDS011;66253;50.526;14.974;2024-01-07T07:43:11;8.30;;;3.30;;
77234;SDS011;66253;50.526;14.974;2024-01-07T07:45:40;9.00;;;3.60;;
77234;SDS011;66253;50.526;14.974;2024-01-07T07:48:08;7.80;;;3.60;;
77234;SDS011;66253;50.526;14.974;2024-01-07T07:50:36;7.00;;;3.10;;
77234;SDS011;66253;50.526;14.974;2024-01-07T07:53:05;7.40;;;3.10;;
77234;SDS011;66253;50.526;14.974;2024-01-07T07:55:33;6.20;;;2.00;;
77234;SDS011;66253;50.526;14.974;2024-01-07T07:58:01;7.90;;;2.90;;
77234;SDS011;66253;50.526;14.974;2024-01-07T08:00:34;7.30;;;2.80;;
77234;SDS011;66253;50.526;14.974;2024-01-07T08:03:03;6.80;;;3.00;;
77234;SDS011;66253;50.526;14.974;2024-01-07T08:05:31;7.50;;;2.70;;
77234;SDS011;66253;50.526;14.974;2024-01-07T08:08:00;7.30;;;3.10;;
77234;SDS011;66253;50.526;14.974;2024-01-07T08:10:28;8.60;;;2.90;;
77234;SDS011;66253;50.526;14.974;2024-01-07T08:12:58;9.10;;;3.30;;
77234;SDS011;66253;50.526;14.974;2024-01-07T08:17:53;8.80;;;2.80;;
77234;SDS011;66253;50.526;14.974;2024-01-07T08:20:22;8.30;;;4.00;;
77234;SDS011;66253;50.526;14.974;2024-01-07T08:22:50;6.20;;;2.60;;
77234;SDS011;66253;50.526;14.974;2024-01-07T08:25:21;7.70;;;3.00;;
77234;SDS011;66253;50.526;14.974;2024-01-07T08:27:50;6.60;;;2.70;;
77234;SDS011;66253;50.526;14.974;2024-01-07T08:30:18;8.10;;;3.00;;
77234;SDS011;66253;50.526;14.974;2024-01-07T08:32:47;8.00;;;3.10;;
77234;SDS011;66253;50.526;14.974;2024-01-07T08:35:15;10.10;;;3.30;;
77234;SDS011;66253;50.526;14.974;2024-01-07T08:37:44;8.80;;;3.20;;
77234;SDS011;66253;50.526;14.974;2024-01-07T08:40:12;9.50;;;4.40;;
77234;SDS011;66253;50.526;14.974;2024-01-07T08:42:41;13.50;;;7.30;;
77234;SDS011;66253;50.526;14.974;2024-01-07T08:45:10;8.40;;;4.00;;
77234;SDS011;66253;50.526;14.974;2024-01-07T08:47:39;13.20;;;5.50;;
77234;SDS011;66253;50.526;14.974;2024-01-07T08:50:08;6.90;;;3.10;;
77234;SDS011;66253;50.526;14.974;2024-01-07T08:52:37;7.60;;;3.40;;
77234;SDS011;66253;50.526;14.974;2024-01-07T08:55:05;9.20;;;4.50;;
77234;SDS011;66253;50.526;14.974;2024-01-07T08:57:35;8.50;;;4.10;;
77234;SDS011;66253;50.526;14.974;2024-01-07T09:00:04;9.60;;;3.70;;
77234;SDS011;66253;50.526;14.974;2024-01-07T09:05:00;8.40;;;4.30;;
77234;SDS011;66253;50.526;14.974;2024-01-07T09:07:30;9.80;;;4.80;;
77234;SDS011;66253;50.526;14.974;2024-01-07T09:09:58;10.40;;;4.50;;
77234;SDS011;66253;50.526;14.974;2024-01-07T09:12:28;10.80;;;5.10;;
77234;SDS011;66253;50.526;14.974;2024-01-07T09:14:56;8.80;;;3.70;;
77234;SDS011;66253;50.526;14.974;2024-01-07T09:17:25;8.80;;;3.60;;
77234;SDS011;66253;50.526;14.974;2024-01-07T09:19:53;8.90;;;3.90;;
77234;SDS011;66253;50.526;14.974;2024-01-07T09:22:22;12.60;;;4.30;;
77234;SDS011;66253;50.526;14.974;2024-01-07T09:24:50;9.00;;;4.10;;
77234;SDS011;66253;50.526;14.974;2024-01-07T09:27:18;14.80;;;4.90;;
77234;SDS011;66253;50.526;14.974;2024-01-07T09:29:47;13.70;;;6.10;;
77234;SDS011;66253;50.526;14.974;2024-01-07T09:32:16;25.00;;;8.60;;
77234;SDS011;66253;50.526;14.974;2024-01-07T09:34:44;10.20;;;3.70;;
77234;SDS011;66253;50.526;14.974;2024-01-07T09:37:13;15.10;;;7.10;;
77234;SDS011;66253;50.526;14.974;2024-01-07T09:39:44;18.50;;;7.30;;
77234;SDS011;66253;50.526;14.974;2024-01-07T09:42:13;13.10;;;5.50;;
77234;SDS011;66253;50.526;14.974;2024-01-07T09:44:43;13.90;;;5.10;;
77234;SDS011;66253;50.526;14.974;2024-01-07T09:47:14;10.10;;;4.60;;
77234;SDS011;66253;50.526;14.974;2024-01-07T09:49:43;12.40;;;4.60;;
77234;SDS011;66253;50.526;14.974;2024-01-07T09:52:12;8.90;;;4.10;;
77234;SDS011;66253;50.526;14.974;2024-01-07T09:54:40;10.50;;;4.00;;
77234;SDS011;66253;50.526;14.974;2024-01-07T09:57:08;11.40;;;4.50;;
77234;SDS011;66253;50.526;14.974;2024-01-07T09:59:37;17.70;;;7.90;;
77234;SDS011;66253;50.526;14.974;2024-01-07T10:02:05;11.80;;;5.30;;
77234;SDS011;66253;50.526;14.974;2024-01-07T10:04:34;13.40;;;5.60;;
77234;SDS011;66253;50.526;14.974;2024-01-07T10:07:02;15.80;;;6.40;;
77234;SDS011;66253;50.526;14.974;2024-01-07T10:09:32;19.50;;;7.70;;
77234;SDS011;66253;50.526;14.974;2024-01-07T10:12:01;17.70;;;7.50;;
77234;SDS011;66253;50.526;14.974;2024-01-07T10:14:31;15.30;;;6.50;;
77234;SDS011;66253;50.526;14.974;2024-01-07T10:16:59;9.40;;;4.60;;
77234;SDS011;66253;50.526;14.974;2024-01-07T10:19:28;14.00;;;6.00;;
77234;SDS011;66253;50.526;14.974;2024-01-07T10:22:00;9.00;;;3.50;;
77234;SDS011;66253;50.526;14.974;2024-01-07T10:24:32;10.80;;;4.60;;
77234;SDS011;66253;50.526;14.974;2024-01-07T10:27:04;8.90;;;4.20;;
77234;SDS011;66253;50.526;14.974;2024-01-07T10:29:33;8.60;;;3.70;;
77234;SDS011;66253;50.526;14.974;2024-01-07T10:32:02;8.30;;;3.60;;
77234;SDS011;66253;50.526;14.974;2024-01-07T10:34:31;7.10;;;3.00;;
77234;SDS011;66253;50.526;14.974;2024-01-07T10:37:01;7.10;;;3.00;;
77234;SDS011;66253;50.526;14.974;2024-01-07T10:39:30;5.50;;;2.20;;
77234;SDS011;66253;50.526;14.974;2024-01-07T10:41:59;7.70;;;4.30;;
77234;SDS011;66253;50.526;14.974;2024-01-07T10:44:29;9.00;;;3.50;;
77234;SDS011;66253;50.526;14.974;2024-01-07T10:46:58;6.50;;;2.50;;
77234;SDS011;66253;50.526;14.974;2024-01-07T10:49:31;12.40;;;4.10;;
77234;SDS011;66253;50.526;14.974;2024-01-07T10:52:03;8.00;;;3.70;;
77234;SDS011;66253;50.526;14.974;2024-01-07T10:54:35;10.90;;;3.70;;
77234;SDS011;66253;50.526;14.974;2024-01-07T10:57:07;10.40;;;3.70;;
77234;SDS011;66253;50.526;14.974;2024-01-07T10:59:46;8.10;;;3.30;;
77234;SDS011;66253;50.526;14.974;2024-01-07T11:02:15;7.40;;;3.60;;
77234;SDS011;66253;50.526;14.974;2024-01-07T11:04:48;6.80;;;3.20;;
77234;SDS011;66253;50.526;14.974;2024-01-07T11:07:26;7.40;;;3.50;;
77234;SDS011;66253;50.526;14.974;2024-01-07T11:10:02;8.30;;;3.60;;
77234;SDS011;66253;50.526;14.974;2024-01-07T11:12:35;14.30;;;9.30;;
77234;SDS011;66253;50.526;14.974;2024-01-07T11:15:04;8.30;;;4.30;;
77234;SDS011;66253;50.526;14.974;2024-01-07T11:20:21;9.50;;;4.20;;
77234;SDS011;66253;50.526;14.974;2024-01-07T11:22:50;9.10;;;4.20;;
77234;SDS011;66253;50.526;14.974;2024-01-07T11:25:39;8.40;;;4.30;;
77234;SDS011;66253;50.526;14.974;2024-01-07T11:28:07;13.00;;;6.40;;
77234;SDS011;66253;50.526;14.974;2024-01-07T11:30:39;9.60;;;4.50;;
77234;SDS011;66253;50.526;14.974;2024-01-07T11:33:07;10.30;;;4.40;;
77234;SDS011;66253;50.526;14.974;2024-01-07T11:38:22;10.10;;;3.90;;
77234;SDS011;66253;50.526;14.974;2024-01-07T11:40:58;8.90;;;3.80;;
77234;SDS011;66253;50.526;14.974;2024-01-07T11:45:54;8.50;;;3.80;;
77234;SDS011;66253;50.526;14.974;2024-01-07T11:48:22;20.60;;;8.20;;
77234;SDS011;66253;50.526;14.974;2024-01-07T11:50:53;12.30;;;5.20;;
77234;SDS011;66253;50.526;14.974;2024-01-07T11:53:22;12.70;;;4.20;;
77234;SDS011;66253;50.526;14.974;2024-01-07T11:55:50;15.10;;;6.70;;
77234;SDS011;66253;50.526;14.974;2024-01-07T11:58:19;8.80;;;3.80;;
77234;SDS011;66253;50.526;14.974;2024-01-07T12:00:48;8.30;;;3.30;;
77234;SDS011;66253;50.526;14.974;2024-01-07T12:03:16;7.00;;;3.30;;
77234;SDS011;66253;50.526;14.974;2024-01-07T12:05:44;5.90;;;2.20;;
77234;SDS011;66253;50.526;14.974;2024-01-07T12:08:13;7.30;;;3.20;;
77234;SDS011;66253;50.526;14.974;2024-01-07T12:10:42;6.50;;;2.90;;
77234;SDS011;66253;50.526;14.974;2024-01-07T12:13:11;6.20;;;2.70;;
77234;SDS011;66253;50.526;14.974;2024-01-07T12:15:40;6.80;;;3.00;;
77234;SDS011;66253;50.526;14.974;2024-01-07T12:18:09;5.80;;;2.60;;
77234;SDS011;66253;50.526;14.974;2024-01-07T12:20:37;16.10;;;7.20;;
77234;SDS011;66253;50.526;14.974;2024-01-07T12:23:06;8.20;;;3.00;;
77234;SDS011;66253;50.526;14.974;2024-01-07T12:25:35;7.90;;;3.20;;
77234;SDS011;66253;50.526;14.974;2024-01-07T12:28:05;9.70;;;3.70;;
77234;SDS011;66253;50.526;14.974;2024-01-07T12:30:34;7.50;;;3.60;;
77234;SDS011;66253;50.526;14.974;2024-01-07T12:33:03;7.30;;;3.00;;
77234;SDS011;66253;50.526;14.974;2024-01-07T12:35:32;6.30;;;2.20;;
77234;SDS011;66253;50.526;14.974;2024-01-07T12:38:01;6.00;;;2.20;;
77234;SDS011;66253;50.526;14.974;2024-01-07T12:40:31;8.70;;;3.10;;
77234;SDS011;66253;50.526;14.974;2024-01-07T12:42:59;7.80;;;2.60;;
77234;SDS011;66253;50.526;14.974;2024-01-07T12:45:28;9.70;;;3.10;;
77234;SDS011;66253;50.526;14.974;2024-01-07T12:47:56;6.50;;;2.10;;
77234;SDS011;66253;50.526;14.974;2024-01-07T12:50:25;6.60;;;2.70;;
77234;SDS011;66253;50.526;14.974;2024-01-07T12:52:53;7.50;;;2.40;;
77234;SDS011;66253;50.526;14.974;2024-01-07T12:55:22;4.20;;;1.70;;
77234;SDS011;66253;50.526;14.974;2024-01-07T12:57:51;4.10;;;1.30;;
77234;SDS011;66253;50.526;14.974;2024-01-07T13:00:19;4.30;;;1.40;;
77234;SDS011;66253;50.526;14.974;2024-01-07T13:02:48;10.10;;;3.30;;
77234;SDS011;66253;50.526;14.974;2024-01-07T13:05:17;4.70;;;1.50;;
77234;SDS011;66253;50.526;14.974;2024-01-07T13:07:45;6.30;;;2.20;;
77234;SDS011;66253;50.526;14.974;2024-01-07T13:10:16;5.50;;;2.00;;
77234;SDS011;66253;50.526;14.974;2024-01-07T13:12:45;3.60;;;1.40;;
77234;SDS011;66253;50.526;14.974;2024-01-07T13:15:13;4.70;;;1.40;;
77234;SDS011;66253;50.526;14.974;2024-01-07T13:17:43;5.00;;;2.10;;
77234;SDS011;66253;50.526;14.974;2024-01-07T13:20:11;3.90;;;1.00;;
77234;SDS011;66253;50.526;14.974;2024-01-07T13:22:40;3.80;;;1.20;;
77234;SDS011;66253;50.526;14.974;2024-01-07T13:25:09;4.80;;;1.10;;
77234;SDS011;66253;50.526;14.974;2024-01-07T13:27:37;3.80;;;1.10;;
77234;SDS011;66253;50.526;14.974;2024-01-07T13:30:06;4.60;;;1.20;;
77234;SDS011;66253;50.526;14.974;2024-01-07T13:32:36;4.50;;;1.30;;
77234;SDS011;66253;50.526;14.974;2024-01-07T13:35:05;4.70;;;0.90;;
77234;SDS011;66253;50.526;14.974;2024-01-07T13:37:34;6.20;;;2.50;;
77234;SDS011;66253;50.526;14.974;2024-01-07T13:40:03;12.50;;;3.30;;
77234;SDS011;66253;50.526;14.974;2024-01-07T13:42:32;16.70;;;4.50;;
77234;SDS011;66253;50.526;14.974;2024-01-07T13:45:01;10.00;;;2.90;;
77234;SDS011;66253;50.526;14.974;2024-01-07T13:47:30;11.60;;;2.60;;
77234;SDS011;66253;50.526;14.974;2024-01-07T13:49:59;15.90;;;4.00;;
77234;SDS011;66253;50.526;14.974;2024-01-07T13:52:29;12.50;;;3.70;;
77234;SDS011;66253;50.526;14.974;2024-01-07T13:54:57;12.00;;;3.10;;
77234;SDS011;66253;50.526;14.974;2024-01-07T13:57:26;9.90;;;3.70;;
77234;SDS011;66253;50.526;14.974;2024-01-07T13:59:57;11.40;;;3.20;;
77234;SDS011;66253;50.526;14.974;2024-01-07T14:02:25;5.40;;;2.10;;
77234;SDS011;66253;50.526;14.974;2024-01-07T14:04:53;5.90;;;2.10;;
77234;SDS011;66253;50.526;14.974;2024-01-07T14:07:22;6.20;;;2.50;;
77234;SDS011;66253;50.526;14.974;2024-01-07T14:09:50;5.10;;;2.10;;
77234;SDS011;66253;50.526;14.974;2024-01-07T14:12:20;6.00;;;2.20;;
77234;SDS011;66253;50.526;14.974;2024-01-07T14:14:48;12.80;;;4.50;;
77234;SDS011;66253;50.526;14.974;2024-01-07T14:17:16;8.00;;;3.30;;
77234;SDS011;66253;50.526;14.974;2024-01-07T14:19:45;9.30;;;3.00;;
77234;SDS011;66253;50.526;14.974;2024-01-07T14:22:13;9.60;;;3.30;;
77234;SDS011;66253;50.526;14.974;2024-01-07T14:24:41;10.80;;;3.30;;
77234;SDS011;66253;50.526;14.974;2024-01-07T14:27:10;7.50;;;2.20;;
77234;SDS011;66253;50.526;14.974;2024-01-07T14:29:38;31.40;;;9.00;;
77234;SDS011;66253;50.526;14.974;2024-01-07T14:32:07;11.10;;;3.00;;
77234;SDS011;66253;50.526;14.974;2024-01-07T14:34:37;11.00;;;3.80;;
77234;SDS011;66253;50.526;14.974;2024-01-07T14:37:16;8.60;;;2.70;;
77234;SDS011;66253;50.526;14.974;2024-01-07T14:39:44;5.00;;;1.50;;
77234;SDS011;66253;50.526;14.974;2024-01-07T14:42:13;12.50;;;5.60;;
77234;SDS011;66253;50.526;14.974;2024-01-07T14:44:41;8.10;;;3.10;;
77234;SDS011;66253;50.526;14.974;2024-01-07T14:47:09;7.80;;;2.50;;
77234;SDS011;66253;50.526;14.974;2024-01-07T14:49:38;8.10;;;3.10;;
77234;SDS011;66253;50.526;14.974;2024-01-07T14:52:06;7.30;;;2.70;;
77234;SDS011;66253;50.526;14.974;2024-01-07T14:54:35;10.90;;;4.90;;